sensor_id;sensor_type;location;lat;lon;timestamp;P1;durP1;ratioP1;P2;durP2;ratioP2
75698;SDS011;64313;51.018;13.742;2023-10-13T00:01:01;9.07;;;3.60;;
75698;SDS011;64313;51.018;13.742;2023-10-13T00:03:29;7.32;;;3.17;;
75698;SDS011;64313;51.018;13.742;2023-10-13T00:05:59;7.15;;;2.80;;
75698;SDS011;64313;51.018;13.742;2023-10-13T00:08:28;8.15;;;3.28;;
75698;SDS011;64313;51.018;13.742;2023-10-13T00:10:54;12.88;;;3.85;;
75698;SDS011;64313;51.018;13.742;2023-10-13T00:13:25;7.82;;;3.70;;
75698;SDS011;64313;51.018;13.742;2023-10-13T00:15:52;11.38;;;4.22;;
75698;SDS011;64313;51.018;13.742;2023-10-13T00:18:32;8.55;;;3.97;;
75698;SDS011;64313;51.018;13.742;2023-10-13T00:21:06;9.60;;;4.15;;
75698;SDS011;64313;51.018;13.742;2023-10-13T00:23:39;8.60;;;3.97;;
75698;SDS011;64313;51.018;13.742;2023-10-13T00:26:18;9.52;;;4.35;;
75698;SDS011;64313;51.018;13.742;2023-10-13T00:28:48;10.23;;;4.25;;
75698;SDS011;64313;51.018;13.742;2023-10-13T00:31:23;7.90;;;3.40;;
75698;SDS011;64313;51.018;13.742;2023-10-13T00:33:51;10.25;;;3.83;;
75698;SDS011;64313;51.018;13.742;2023-10-13T00:36:20;10.15;;;4.00;;
75698;SDS011;64313;51.018;13.742;2023-10-13T00:38:46;8.88;;;3.95;;
75698;SDS011;64313;51.018;13.742;2023-10-13T00:41:16;10.85;;;4.20;;
75698;SDS011;64313;51.018;13.742;2023-10-13T00:43:46;9.25;;;3.88;;
75698;SDS011;64313;51.018;13.742;2023-10-13T00:46:38;9.55;;;3.45;;
75698;SDS011;64313;51.018;13.742;2023-10-13T00:49:04;8.52;;;3.92;;
75698;SDS011;64313;51.018;13.742;2023-10-13T00:51:30;9.65;;;3.67;;
75698;SDS011;64313;51.018;13.742;2023-10-13T00:54:06;9.35;;;3.53;;
75698;SDS011;64313;51.018;13.742;2023-10-13T00:56:40;8.35;;;3.83;;
75698;SDS011;64313;51.018;13.742;2023-10-13T00:59:14;8.98;;;3.60;;
75698;SDS011;64313;51.018;13.742;2023-10-13T01:01:41;7.65;;;3.38;;
75698;SDS011;64313;51.018;13.742;2023-10-13T01:04:10;7.03;;;3.53;;
75698;SDS011;64313;51.018;13.742;2023-10-13T01:06:38;7.72;;;2.92;;
75698;SDS011;64313;51.018;13.742;2023-10-13T01:09:08;10.90;;;3.47;;
75698;SDS011;64313;51.018;13.742;2023-10-13T01:11:44;7.57;;;3.55;;
75698;SDS011;64313;51.018;13.742;2023-10-13T01:14:17;10.13;;;3.58;;
75698;SDS011;64313;51.018;13.742;2023-10-13T01:16:44;6.60;;;3.25;;
75698;SDS011;64313;51.018;13.742;2023-10-13T01:19:11;7.38;;;3.03;;
75698;SDS011;64313;51.018;13.742;2023-10-13T01:21:38;7.57;;;3.08;;
75698;SDS011;64313;51.018;13.742;2023-10-13T01:24:06;6.00;;;2.97;;
75698;SDS011;64313;51.018;13.742;2023-10-13T01:26:33;7.35;;;3.20;;
75698;SDS011;64313;51.018;13.742;2023-10-13T01:29:03;7.43;;;2.85;;
75698;SDS011;64313;51.018;13.742;2023-10-13T01:31:38;7.43;;;2.92;;
75698;SDS011;64313;51.018;13.742;2023-10-13T01:34:10;7.03;;;2.78;;
75698;SDS011;64313;51.018;13.742;2023-10-13T01:36:53;5.88;;;2.90;;
75698;SDS011;64313;51.018;13.742;2023-10-13T01:39:20;8.07;;;3.20;;
75698;SDS011;64313;51.018;13.742;2023-10-13T01:41:46;7.13;;;3.13;;
75698;SDS011;64313;51.018;13.742;2023-10-13T01:44:18;10.43;;;2.88;;
75698;SDS011;64313;51.018;13.742;2023-10-13T01:46:45;6.75;;;2.80;;
75698;SDS011;64313;51.018;13.742;2023-10-13T01:49:10;7.65;;;2.95;;
75698;SDS011;64313;51.018;13.742;2023-10-13T01:51:36;5.63;;;2.60;;
75698;SDS011;64313;51.018;13.742;2023-10-13T01:54:04;6.57;;;2.83;;
75698;SDS011;64313;51.018;13.742;2023-10-13T01:56:30;7.75;;;2.58;;
75698;SDS011;64313;51.018;13.742;2023-10-13T01:58:55;6.07;;;2.58;;
75698;SDS011;64313;51.018;13.742;2023-10-13T02:01:21;8.98;;;2.90;;
75698;SDS011;64313;51.018;13.742;2023-10-13T02:03:53;6.85;;;2.53;;
75698;SDS011;64313;51.018;13.742;2023-10-13T02:06:32;10.25;;;3.13;;
75698;SDS011;64313;51.018;13.742;2023-10-13T02:09:02;7.40;;;2.80;;
75698;SDS011;64313;51.018;13.742;2023-10-13T02:11:36;8.90;;;3.03;;
75698;SDS011;64313;51.018;13.742;2023-10-13T02:14:03;6.68;;;2.83;;
75698;SDS011;64313;51.018;13.742;2023-10-13T02:16:28;6.07;;;2.70;;
75698;SDS011;64313;51.018;13.742;2023-10-13T02:18:57;6.15;;;2.65;;
75698;SDS011;64313;51.018;13.742;2023-10-13T02:21:22;6.72;;;2.83;;
75698;SDS011;64313;51.018;13.742;2023-10-13T02:23:56;6.07;;;2.72;;
75698;SDS011;64313;51.018;13.742;2023-10-13T02:26:26;6.50;;;2.65;;
75698;SDS011;64313;51.018;13.742;2023-10-13T02:28:59;7.35;;;2.75;;
75698;SDS011;64313;51.018;13.742;2023-10-13T02:31:30;7.70;;;3.00;;
75698;SDS011;64313;51.018;13.742;2023-10-13T02:33:55;7.43;;;2.80;;
75698;SDS011;64313;51.018;13.742;2023-10-13T02:36:20;6.45;;;2.40;;
75698;SDS011;64313;51.018;13.742;2023-10-13T02:39:01;7.47;;;2.80;;
75698;SDS011;64313;51.018;13.742;2023-10-13T02:41:35;6.25;;;2.78;;
75698;SDS011;64313;51.018;13.742;2023-10-13T02:44:02;5.47;;;2.53;;
75698;SDS011;64313;51.018;13.742;2023-10-13T02:46:32;6.60;;;2.60;;
75698;SDS011;64313;51.018;13.742;2023-10-13T02:49:01;7.63;;;2.40;;
75698;SDS011;64313;51.018;13.742;2023-10-13T02:51:35;6.68;;;2.75;;
75698;SDS011;64313;51.018;13.742;2023-10-13T02:54:00;5.85;;;2.47;;
75698;SDS011;64313;51.018;13.742;2023-10-13T02:56:45;4.82;;;2.30;;
75698;SDS011;64313;51.018;13.742;2023-10-13T02:59:24;5.40;;;2.40;;
75698;SDS011;64313;51.018;13.742;2023-10-13T03:02:05;6.18;;;2.80;;
75698;SDS011;64313;51.018;13.742;2023-10-13T03:04:54;6.50;;;2.33;;
75698;SDS011;64313;51.018;13.742;2023-10-13T03:07:34;6.65;;;2.42;;
75698;SDS011;64313;51.018;13.742;2023-10-13T03:10:01;8.15;;;2.63;;
75698;SDS011;64313;51.018;13.742;2023-10-13T03:12:35;6.43;;;2.60;;
75698;SDS011;64313;51.018;13.742;2023-10-13T03:15:02;7.70;;;2.63;;
75698;SDS011;64313;51.018;13.742;2023-10-13T03:17:38;6.80;;;2.67;;
75698;SDS011;64313;51.018;13.742;2023-10-13T03:20:09;7.78;;;2.60;;
75698;SDS011;64313;51.018;13.742;2023-10-13T03:22:39;6.65;;;2.38;;
75698;SDS011;64313;51.018;13.742;2023-10-13T03:25:06;5.47;;;2.63;;
75698;SDS011;64313;51.018;13.742;2023-10-13T03:27:32;5.55;;;2.50;;
75698;SDS011;64313;51.018;13.742;2023-10-13T03:30:06;4.70;;;2.20;;
75698;SDS011;64313;51.018;13.742;2023-10-13T03:32:40;6.43;;;2.53;;
75698;SDS011;64313;51.018;13.742;2023-10-13T03:35:09;6.05;;;2.45;;
75698;SDS011;64313;51.018;13.742;2023-10-13T03:37:57;5.68;;;2.45;;
75698;SDS011;64313;51.018;13.742;2023-10-13T03:40:23;6.60;;;2.53;;
75698;SDS011;64313;51.018;13.742;2023-10-13T03:45:24;8.65;;;2.80;;
75698;SDS011;64313;51.018;13.742;2023-10-13T03:47:53;5.93;;;2.50;;
75698;SDS011;64313;51.018;13.742;2023-10-13T03:50:19;7.38;;;2.70;;
75698;SDS011;64313;51.018;13.742;2023-10-13T03:53:07;6.45;;;2.70;;
75698;SDS011;64313;51.018;13.742;2023-10-13T03:55:38;6.43;;;2.92;;
75698;SDS011;64313;51.018;13.742;2023-10-13T03:58:03;7.45;;;3.30;;
75698;SDS011;64313;51.018;13.742;2023-10-13T04:00:30;7.22;;;3.72;;
75698;SDS011;64313;51.018;13.742;2023-10-13T04:02:56;7.95;;;4.45;;
75698;SDS011;64313;51.018;13.742;2023-10-13T04:05:32;6.95;;;3.30;;
75698;SDS011;64313;51.018;13.742;2023-10-13T04:08:20;7.57;;;3.15;;
75698;SDS011;64313;51.018;13.742;2023-10-13T04:10:52;7.13;;;3.58;;
75698;SDS011;64313;51.018;13.742;2023-10-13T04:13:18;6.05;;;3.10;;
75698;SDS011;64313;51.018;13.742;2023-10-13T04:16:02;8.10;;;3.63;;
75698;SDS011;64313;51.018;13.742;2023-10-13T04:19:00;8.82;;;3.78;;
75698;SDS011;64313;51.018;13.742;2023-10-13T04:21:26;7.75;;;3.55;;
75698;SDS011;64313;51.018;13.742;2023-10-13T04:24:04;7.75;;;3.58;;
75698;SDS011;64313;51.018;13.742;2023-10-13T04:26:34;7.47;;;3.30;;
75698;SDS011;64313;51.018;13.742;2023-10-13T04:29:07;11.43;;;3.90;;
75698;SDS011;64313;51.018;13.742;2023-10-13T04:31:55;9.20;;;3.55;;
75698;SDS011;64313;51.018;13.742;2023-10-13T04:34:25;7.88;;;3.42;;
75698;SDS011;64313;51.018;13.742;2023-10-13T04:36:53;8.52;;;3.50;;
75698;SDS011;64313;51.018;13.742;2023-10-13T04:39:36;8.57;;;3.35;;
75698;SDS011;64313;51.018;13.742;2023-10-13T04:42:03;12.02;;;3.90;;
75698;SDS011;64313;51.018;13.742;2023-10-13T04:44:38;7.00;;;3.50;;
75698;SDS011;64313;51.018;13.742;2023-10-13T04:47:07;8.75;;;3.83;;
75698;SDS011;64313;51.018;13.742;2023-10-13T04:49:42;6.70;;;3.13;;
75698;SDS011;64313;51.018;13.742;2023-10-13T04:52:09;8.18;;;3.88;;
75698;SDS011;64313;51.018;13.742;2023-10-13T04:54:36;8.77;;;3.20;;
75698;SDS011;64313;51.018;13.742;2023-10-13T04:57:22;7.38;;;3.25;;
75698;SDS011;64313;51.018;13.742;2023-10-13T04:59:58;7.90;;;3.55;;
75698;SDS011;64313;51.018;13.742;2023-10-13T05:02:51;8.52;;;3.40;;
75698;SDS011;64313;51.018;13.742;2023-10-13T05:05:25;6.30;;;3.22;;
75698;SDS011;64313;51.018;13.742;2023-10-13T05:07:51;8.30;;;3.63;;
75698;SDS011;64313;51.018;13.742;2023-10-13T05:10:36;8.85;;;3.38;;
75698;SDS011;64313;51.018;13.742;2023-10-13T05:13:20;7.45;;;3.65;;
75698;SDS011;64313;51.018;13.742;2023-10-13T05:16:04;9.18;;;3.75;;
75698;SDS011;64313;51.018;13.742;2023-10-13T05:18:48;11.18;;;3.97;;
75698;SDS011;64313;51.018;13.742;2023-10-13T05:21:33;11.70;;;3.85;;
75698;SDS011;64313;51.018;13.742;2023-10-13T05:24:34;7.72;;;3.35;;
75698;SDS011;64313;51.018;13.742;2023-10-13T05:27:18;8.02;;;3.78;;
75698;SDS011;64313;51.018;13.742;2023-10-13T05:30:02;10.02;;;4.03;;
75698;SDS011;64313;51.018;13.742;2023-10-13T05:32:46;8.55;;;4.28;;
75698;SDS011;64313;51.018;13.742;2023-10-13T05:35:30;9.60;;;3.70;;
75698;SDS011;64313;51.018;13.742;2023-10-13T05:38:14;8.48;;;3.72;;
75698;SDS011;64313;51.018;13.742;2023-10-13T05:40:59;8.95;;;4.00;;
75698;SDS011;64313;51.018;13.742;2023-10-13T05:43:43;9.70;;;3.45;;
75698;SDS011;64313;51.018;13.742;2023-10-13T05:46:28;8.40;;;3.80;;
75698;SDS011;64313;51.018;13.742;2023-10-13T05:49:03;9.35;;;3.65;;
75698;SDS011;64313;51.018;13.742;2023-10-13T05:51:41;9.20;;;3.10;;
75698;SDS011;64313;51.018;13.742;2023-10-13T05:54:10;8.85;;;3.60;;
75698;SDS011;64313;51.018;13.742;2023-10-13T05:56:48;6.95;;;3.33;;
75698;SDS011;64313;51.018;13.742;2023-10-13T05:59:34;9.20;;;3.25;;
75698;SDS011;64313;51.018;13.742;2023-10-13T06:02:20;7.78;;;3.00;;
75698;SDS011;64313;51.018;13.742;2023-10-13T06:05:06;7.15;;;3.20;;
75698;SDS011;64313;51.018;13.742;2023-10-13T06:07:52;7.10;;;3.10;;
75698;SDS011;64313;51.018;13.742;2023-10-13T06:10:37;5.85;;;3.10;;
75698;SDS011;64313;51.018;13.742;2023-10-13T06:13:22;7.53;;;2.70;;
75698;SDS011;64313;51.018;13.742;2023-10-13T06:16:07;7.18;;;2.85;;
75698;SDS011;64313;51.018;13.742;2023-10-13T06:18:59;8.60;;;2.80;;
75698;SDS011;64313;51.018;13.742;2023-10-13T06:21:43;10.85;;;2.88;;
75698;SDS011;64313;51.018;13.742;2023-10-13T06:24:28;9.10;;;3.10;;
75698;SDS011;64313;51.018;13.742;2023-10-13T06:27:12;8.00;;;2.83;;
75698;SDS011;64313;51.018;13.742;2023-10-13T06:29:57;8.13;;;3.00;;
75698;SDS011;64313;51.018;13.742;2023-10-13T06:32:23;7.72;;;2.67;;
75698;SDS011;64313;51.018;13.742;2023-10-13T06:34:53;6.97;;;3.33;;
75698;SDS011;64313;51.018;13.742;2023-10-13T06:37:38;12.30;;;3.22;;
75698;SDS011;64313;51.018;13.742;2023-10-13T06:40:10;9.88;;;3.20;;
75698;SDS011;64313;51.018;13.742;2023-10-13T06:42:55;8.93;;;3.00;;
75698;SDS011;64313;51.018;13.742;2023-10-13T06:45:36;9.45;;;2.88;;
75698;SDS011;64313;51.018;13.742;2023-10-13T06:48:02;7.90;;;3.30;;
75698;SDS011;64313;51.018;13.742;2023-10-13T06:50:27;8.82;;;3.22;;
75698;SDS011;64313;51.018;13.742;2023-10-13T06:52:54;6.57;;;3.25;;
75698;SDS011;64313;51.018;13.742;2023-10-13T06:55:20;7.55;;;3.33;;
75698;SDS011;64313;51.018;13.742;2023-10-13T06:57:53;7.20;;;3.15;;
75698;SDS011;64313;51.018;13.742;2023-10-13T07:00:27;9.73;;;3.45;;
75698;SDS011;64313;51.018;13.742;2023-10-13T07:03:06;10.43;;;3.40;;
75698;SDS011;64313;51.018;13.742;2023-10-13T07:05:38;7.28;;;3.38;;
75698;SDS011;64313;51.018;13.742;2023-10-13T07:08:07;13.98;;;3.90;;
75698;SDS011;64313;51.018;13.742;2023-10-13T07:10:34;10.55;;;3.85;;
75698;SDS011;64313;51.018;13.742;2023-10-13T07:13:18;9.45;;;4.13;;
75698;SDS011;64313;51.018;13.742;2023-10-13T07:15:45;9.63;;;4.18;;
75698;SDS011;64313;51.018;13.742;2023-10-13T07:18:14;7.75;;;3.53;;
75698;SDS011;64313;51.018;13.742;2023-10-13T07:20:48;8.43;;;4.20;;
75698;SDS011;64313;51.018;13.742;2023-10-13T07:23:14;10.13;;;3.90;;
75698;SDS011;64313;51.018;13.742;2023-10-13T07:25:43;13.20;;;4.10;;
75698;SDS011;64313;51.018;13.742;2023-10-13T07:28:17;9.68;;;3.83;;
75698;SDS011;64313;51.018;13.742;2023-10-13T07:30:42;9.20;;;3.90;;
75698;SDS011;64313;51.018;13.742;2023-10-13T07:33:15;7.80;;;3.95;;
75698;SDS011;64313;51.018;13.742;2023-10-13T07:35:45;8.40;;;3.67;;
75698;SDS011;64313;51.018;13.742;2023-10-13T07:38:12;8.60;;;3.70;;
75698;SDS011;64313;51.018;13.742;2023-10-13T07:40:38;9.38;;;3.58;;
75698;SDS011;64313;51.018;13.742;2023-10-13T07:43:03;9.57;;;4.00;;
75698;SDS011;64313;51.018;13.742;2023-10-13T07:45:35;8.15;;;4.05;;
75698;SDS011;64313;51.018;13.742;2023-10-13T07:48:02;9.18;;;3.85;;
75698;SDS011;64313;51.018;13.742;2023-10-13T07:50:43;8.23;;;3.72;;
75698;SDS011;64313;51.018;13.742;2023-10-13T07:53:11;9.27;;;3.95;;
75698;SDS011;64313;51.018;13.742;2023-10-13T07:55:49;8.43;;;4.13;;
75698;SDS011;64313;51.018;13.742;2023-10-13T07:58:21;9.55;;;3.83;;
75698;SDS011;64313;51.018;13.742;2023-10-13T08:00:53;9.38;;;4.35;;
75698;SDS011;64313;51.018;13.742;2023-10-13T08:03:31;9.13;;;4.63;;
75698;SDS011;64313;51.018;13.742;2023-10-13T08:06:00;8.18;;;4.43;;
75698;SDS011;64313;51.018;13.742;2023-10-13T08:08:44;9.43;;;4.95;;
75698;SDS011;64313;51.018;13.742;2023-10-13T08:11:15;9.13;;;5.38;;
75698;SDS011;64313;51.018;13.742;2023-10-13T08:14:10;12.65;;;5.05;;
75698;SDS011;64313;51.018;13.742;2023-10-13T08:16:48;9.27;;;5.07;;
75698;SDS011;64313;51.018;13.742;2023-10-13T08:19:23;9.95;;;4.85;;
75698;SDS011;64313;51.018;13.742;2023-10-13T08:21:53;10.98;;;5.68;;
75698;SDS011;64313;51.018;13.742;2023-10-13T08:27:12;8.95;;;3.63;;
75698;SDS011;64313;51.018;13.742;2023-10-13T08:29:59;6.32;;;2.25;;
75698;SDS011;64313;51.018;13.742;2023-10-13T08:32:28;4.28;;;1.63;;
75698;SDS011;64313;51.018;13.742;2023-10-13T08:34:54;4.10;;;1.80;;
75698;SDS011;64313;51.018;13.742;2023-10-13T08:37:23;3.95;;;1.63;;
75698;SDS011;64313;51.018;13.742;2023-10-13T08:39:50;5.53;;;1.88;;
75698;SDS011;64313;51.018;13.742;2023-10-13T08:42:30;4.13;;;1.75;;
75698;SDS011;64313;51.018;13.742;2023-10-13T08:45:09;5.25;;;1.70;;
75698;SDS011;64313;51.018;13.742;2023-10-13T08:47:48;6.15;;;1.90;;
75698;SDS011;64313;51.018;13.742;2023-10-13T08:50:37;5.53;;;1.90;;
75698;SDS011;64313;51.018;13.742;2023-10-13T08:58:34;4.95;;;1.60;;
75698;SDS011;64313;51.018;13.742;2023-10-13T09:01:19;5.78;;;2.03;;
75698;SDS011;64313;51.018;13.742;2023-10-13T09:04:10;5.10;;;2.13;;
75698;SDS011;64313;51.018;13.742;2023-10-13T09:09:34;22.10;;;7.70;;
75698;SDS011;64313;51.018;13.742;2023-10-13T09:14:58;19.40;;;6.57;;
75698;SDS011;64313;51.018;13.742;2023-10-13T09:17:49;32.05;;;11.70;;
75698;SDS011;64313;51.018;13.742;2023-10-13T09:20:38;51.13;;;18.67;;
75698;SDS011;64313;51.018;13.742;2023-10-13T09:23:10;13.75;;;6.18;;
75698;SDS011;64313;51.018;13.742;2023-10-13T09:25:49;7.80;;;3.47;;
75698;SDS011;64313;51.018;13.742;2023-10-13T09:28:23;6.63;;;2.22;;
75698;SDS011;64313;51.018;13.742;2023-10-13T09:30:53;4.90;;;1.83;;
75698;SDS011;64313;51.018;13.742;2023-10-13T09:36:14;5.55;;;1.88;;
75698;SDS011;64313;51.018;13.742;2023-10-13T09:38:42;3.85;;;1.60;;
75698;SDS011;64313;51.018;13.742;2023-10-13T09:41:14;6.82;;;1.90;;
75698;SDS011;64313;51.018;13.742;2023-10-13T09:43:53;5.60;;;1.77;;
75698;SDS011;64313;51.018;13.742;2023-10-13T09:46:22;6.13;;;1.90;;
75698;SDS011;64313;51.018;13.742;2023-10-13T09:49:12;4.38;;;1.90;;
75698;SDS011;64313;51.018;13.742;2023-10-13T09:51:48;8.75;;;2.22;;
75698;SDS011;64313;51.018;13.742;2023-10-13T09:54:17;6.88;;;2.25;;
75698;SDS011;64313;51.018;13.742;2023-10-13T09:56:54;4.90;;;2.00;;
75698;SDS011;64313;51.018;13.742;2023-10-13T09:59:38;9.18;;;2.10;;
75698;SDS011;64313;51.018;13.742;2023-10-13T10:02:16;7.75;;;1.95;;
75698;SDS011;64313;51.018;13.742;2023-10-13T10:04:53;7.82;;;2.08;;
75698;SDS011;64313;51.018;13.742;2023-10-13T10:07:27;7.18;;;2.20;;
75698;SDS011;64313;51.018;13.742;2023-10-13T10:10:00;6.07;;;2.15;;
75698;SDS011;64313;51.018;13.742;2023-10-13T10:18:17;7.28;;;2.35;;
75698;SDS011;64313;51.018;13.742;2023-10-13T10:20:44;5.32;;;2.00;;
75698;SDS011;64313;51.018;13.742;2023-10-13T10:23:25;7.68;;;2.20;;
75698;SDS011;64313;51.018;13.742;2023-10-13T10:25:54;7.40;;;2.17;;
75698;SDS011;64313;51.018;13.742;2023-10-13T10:28:36;5.95;;;2.10;;
75698;SDS011;64313;51.018;13.742;2023-10-13T10:31:07;7.13;;;2.10;;
75698;SDS011;64313;51.018;13.742;2023-10-13T10:33:45;7.65;;;2.20;;
75698;SDS011;64313;51.018;13.742;2023-10-13T10:36:17;8.15;;;2.40;;
75698;SDS011;64313;51.018;13.742;2023-10-13T10:38:55;8.25;;;2.15;;
75698;SDS011;64313;51.018;13.742;2023-10-13T10:41:25;8.20;;;2.42;;
75698;SDS011;64313;51.018;13.742;2023-10-13T10:44:12;11.15;;;2.47;;
75698;SDS011;64313;51.018;13.742;2023-10-13T10:46:41;6.90;;;2.17;;
75698;SDS011;64313;51.018;13.742;2023-10-13T10:49:18;9.07;;;2.72;;
75698;SDS011;64313;51.018;13.742;2023-10-13T10:51:52;6.97;;;2.08;;
75698;SDS011;64313;51.018;13.742;2023-10-13T10:54:25;10.98;;;2.53;;
75698;SDS011;64313;51.018;13.742;2023-10-13T10:56:58;7.70;;;2.40;;
75698;SDS011;64313;51.018;13.742;2023-10-13T10:59:36;7.60;;;2.20;;
75698;SDS011;64313;51.018;13.742;2023-10-13T11:02:02;7.85;;;2.25;;
75698;SDS011;64313;51.018;13.742;2023-10-13T11:04:28;8.95;;;2.65;;
75698;SDS011;64313;51.018;13.742;2023-10-13T11:06:59;8.50;;;2.85;;
75698;SDS011;64313;51.018;13.742;2023-10-13T11:09:25;12.80;;;2.45;;
75698;SDS011;64313;51.018;13.742;2023-10-13T11:11:51;7.78;;;2.55;;
75698;SDS011;64313;51.018;13.742;2023-10-13T11:14:27;11.90;;;2.63;;
75698;SDS011;64313;51.018;13.742;2023-10-13T11:16:54;8.30;;;2.25;;
75698;SDS011;64313;51.018;13.742;2023-10-13T11:19:38;8.15;;;2.33;;
75698;SDS011;64313;51.018;13.742;2023-10-13T11:22:14;9.93;;;2.70;;
75698;SDS011;64313;51.018;13.742;2023-10-13T11:25:00;5.60;;;2.00;;
75698;SDS011;64313;51.018;13.742;2023-10-13T11:27:37;9.00;;;2.47;;
75698;SDS011;64313;51.018;13.742;2023-10-13T11:30:12;7.53;;;2.67;;
75698;SDS011;64313;51.018;13.742;2023-10-13T11:32:45;10.73;;;3.20;;
75698;SDS011;64313;51.018;13.742;2023-10-13T11:35:21;8.30;;;2.65;;
75698;SDS011;64313;51.018;13.742;2023-10-13T11:37:48;13.30;;;3.05;;
75698;SDS011;64313;51.018;13.742;2023-10-13T11:40:22;10.77;;;2.40;;
75698;SDS011;64313;51.018;13.742;2023-10-13T11:43:08;11.75;;;2.85;;
75698;SDS011;64313;51.018;13.742;2023-10-13T11:45:40;9.15;;;2.45;;
75698;SDS011;64313;51.018;13.742;2023-10-13T11:48:21;7.82;;;2.60;;
75698;SDS011;64313;51.018;13.742;2023-10-13T11:51:01;9.60;;;2.97;;
75698;SDS011;64313;51.018;13.742;2023-10-13T11:53:37;11.77;;;2.90;;
75698;SDS011;64313;51.018;13.742;2023-10-13T11:56:03;11.25;;;2.80;;
75698;SDS011;64313;51.018;13.742;2023-10-13T11:58:34;13.35;;;2.70;;
75698;SDS011;64313;51.018;13.742;2023-10-13T12:01:00;12.48;;;2.95;;
75698;SDS011;64313;51.018;13.742;2023-10-13T12:03:38;10.57;;;2.90;;
75698;SDS011;64313;51.018;13.742;2023-10-13T12:06:22;11.68;;;2.90;;
75698;SDS011;64313;51.018;13.742;2023-10-13T12:08:58;13.07;;;3.00;;
75698;SDS011;64313;51.018;13.742;2023-10-13T12:11:39;10.98;;;2.85;;
75698;SDS011;64313;51.018;13.742;2023-10-13T12:14:09;12.00;;;2.95;;
75698;SDS011;64313;51.018;13.742;2023-10-13T12:16:49;10.90;;;3.35;;
75698;SDS011;64313;51.018;13.742;2023-10-13T12:19:24;10.50;;;2.67;;
75698;SDS011;64313;51.018;13.742;2023-10-13T12:21:52;11.10;;;2.65;;
75698;SDS011;64313;51.018;13.742;2023-10-13T12:24:24;11.48;;;2.75;;
75698;SDS011;64313;51.018;13.742;2023-10-13T12:27:01;14.02;;;3.17;;
75698;SDS011;64313;51.018;13.742;2023-10-13T12:29:52;12.02;;;2.70;;
75698;SDS011;64313;51.018;13.742;2023-10-13T12:32:18;12.10;;;3.00;;
75698;SDS011;64313;51.018;13.742;2023-10-13T12:34:55;10.35;;;2.88;;
75698;SDS011;64313;51.018;13.742;2023-10-13T12:37:24;10.00;;;2.90;;
75698;SDS011;64313;51.018;13.742;2023-10-13T12:40:07;11.43;;;3.10;;
75698;SDS011;64313;51.018;13.742;2023-10-13T12:42:52;10.82;;;2.92;;
75698;SDS011;64313;51.018;13.742;2023-10-13T12:45:40;9.93;;;2.53;;
75698;SDS011;64313;51.018;13.742;2023-10-13T12:48:25;12.30;;;3.35;;
75698;SDS011;64313;51.018;13.742;2023-10-13T12:51:09;10.30;;;2.70;;
75698;SDS011;64313;51.018;13.742;2023-10-13T12:53:47;9.35;;;3.17;;
75698;SDS011;64313;51.018;13.742;2023-10-13T12:56:13;11.25;;;3.45;;
75698;SDS011;64313;51.018;13.742;2023-10-13T12:58:39;9.48;;;2.70;;
75698;SDS011;64313;51.018;13.742;2023-10-13T13:01:05;10.82;;;2.95;;
75698;SDS011;64313;51.018;13.742;2023-10-13T13:03:33;11.93;;;2.80;;
75698;SDS011;64313;51.018;13.742;2023-10-13T13:05:59;8.75;;;2.80;;
75698;SDS011;64313;51.018;13.742;2023-10-13T13:08:32;9.50;;;2.60;;
75698;SDS011;64313;51.018;13.742;2023-10-13T13:11:00;11.63;;;3.03;;
75698;SDS011;64313;51.018;13.742;2023-10-13T13:13:27;15.85;;;3.63;;
75698;SDS011;64313;51.018;13.742;2023-10-13T13:15:52;12.27;;;4.55;;
75698;SDS011;64313;51.018;13.742;2023-10-13T13:18:19;10.95;;;3.80;;
75698;SDS011;64313;51.018;13.742;2023-10-13T13:20:44;10.77;;;4.20;;
75698;SDS011;64313;51.018;13.742;2023-10-13T13:23:20;9.48;;;4.18;;
75698;SDS011;64313;51.018;13.742;2023-10-13T13:25:46;10.20;;;3.88;;
75698;SDS011;64313;51.018;13.742;2023-10-13T13:28:12;14.07;;;4.47;;
75698;SDS011;64313;51.018;13.742;2023-10-13T13:30:40;11.23;;;3.75;;
75698;SDS011;64313;51.018;13.742;2023-10-13T13:33:06;14.13;;;4.18;;
75698;SDS011;64313;51.018;13.742;2023-10-13T13:35:38;11.60;;;3.28;;
75698;SDS011;64313;51.018;13.742;2023-10-13T13:38:04;11.00;;;3.75;;
75698;SDS011;64313;51.018;13.742;2023-10-13T13:40:38;11.50;;;3.08;;
75698;SDS011;64313;51.018;13.742;2023-10-13T13:43:04;8.90;;;2.92;;
75698;SDS011;64313;51.018;13.742;2023-10-13T13:45:32;10.65;;;3.80;;
75698;SDS011;64313;51.018;13.742;2023-10-13T13:47:59;13.63;;;3.13;;
75698;SDS011;64313;51.018;13.742;2023-10-13T13:50:26;12.52;;;3.05;;
75698;SDS011;64313;51.018;13.742;2023-10-13T13:52:53;11.75;;;3.25;;
75698;SDS011;64313;51.018;13.742;2023-10-13T13:55:24;10.32;;;3.20;;
75698;SDS011;64313;51.018;13.742;2023-10-13T13:57:55;8.73;;;3.10;;
75698;SDS011;64313;51.018;13.742;2023-10-13T14:00:21;10.07;;;3.17;;
75698;SDS011;64313;51.018;13.742;2023-10-13T14:03:07;12.82;;;3.17;;
75698;SDS011;64313;51.018;13.742;2023-10-13T14:05:55;10.52;;;3.33;;
75698;SDS011;64313;51.018;13.742;2023-10-13T14:08:24;8.27;;;2.95;;
75698;SDS011;64313;51.018;13.742;2023-10-13T14:10:50;11.73;;;3.30;;
75698;SDS011;64313;51.018;13.742;2023-10-13T14:13:35;16.58;;;3.15;;
75698;SDS011;64313;51.018;13.742;2023-10-13T14:16:20;12.38;;;3.10;;
75698;SDS011;64313;51.018;13.742;2023-10-13T14:18:48;9.02;;;3.05;;
75698;SDS011;64313;51.018;13.742;2023-10-13T14:21:16;9.88;;;3.35;;
75698;SDS011;64313;51.018;13.742;2023-10-13T14:23:48;10.68;;;3.47;;
75698;SDS011;64313;51.018;13.742;2023-10-13T14:26:15;8.55;;;3.25;;
75698;SDS011;64313;51.018;13.742;2023-10-13T14:28:45;11.68;;;3.85;;
75698;SDS011;64313;51.018;13.742;2023-10-13T14:31:26;10.88;;;3.60;;
75698;SDS011;64313;51.018;13.742;2023-10-13T14:33:52;8.82;;;3.72;;
75698;SDS011;64313;51.018;13.742;2023-10-13T14:36:18;10.73;;;3.65;;
75698;SDS011;64313;51.018;13.742;2023-10-13T14:38:45;16.20;;;3.45;;
75698;SDS011;64313;51.018;13.742;2023-10-13T14:41:14;10.43;;;3.65;;
75698;SDS011;64313;51.018;13.742;2023-10-13T14:43:42;8.65;;;3.40;;
75698;SDS011;64313;51.018;13.742;2023-10-13T14:46:13;11.05;;;3.78;;
75698;SDS011;64313;51.018;13.742;2023-10-13T14:48:44;6.88;;;3.03;;
75698;SDS011;64313;51.018;13.742;2023-10-13T14:51:13;9.82;;;3.95;;
75698;SDS011;64313;51.018;13.742;2023-10-13T14:53:41;9.73;;;3.47;;
75698;SDS011;64313;51.018;13.742;2023-10-13T14:56:10;10.63;;;3.35;;
75698;SDS011;64313;51.018;13.742;2023-10-13T14:58:36;9.43;;;3.35;;
75698;SDS011;64313;51.018;13.742;2023-10-13T15:01:10;12.57;;;3.38;;
75698;SDS011;64313;51.018;13.742;2023-10-13T15:03:43;7.72;;;3.08;;
75698;SDS011;64313;51.018;13.742;2023-10-13T15:06:19;8.90;;;3.50;;
75698;SDS011;64313;51.018;13.742;2023-10-13T15:08:54;11.20;;;3.30;;
75698;SDS011;64313;51.018;13.742;2023-10-13T15:11:24;9.00;;;3.70;;
75698;SDS011;64313;51.018;13.742;2023-10-13T15:14:01;11.32;;;3.35;;
75698;SDS011;64313;51.018;13.742;2023-10-13T15:16:27;11.65;;;3.70;;
75698;SDS011;64313;51.018;13.742;2023-10-13T15:18:53;10.48;;;3.05;;
75698;SDS011;64313;51.018;13.742;2023-10-13T15:21:19;11.57;;;3.55;;
75698;SDS011;64313;51.018;13.742;2023-10-13T15:23:49;9.30;;;3.60;;
75698;SDS011;64313;51.018;13.742;2023-10-13T15:26:16;9.88;;;3.85;;
75698;SDS011;64313;51.018;13.742;2023-10-13T15:28:42;10.45;;;3.72;;
75698;SDS011;64313;51.018;13.742;2023-10-13T15:31:17;9.15;;;3.40;;
75698;SDS011;64313;51.018;13.742;2023-10-13T15:34:08;11.23;;;3.20;;